sensor_id;sensor_type;location;lat;lon;timestamp;P1;durP1;ratioP1;P2;durP2;ratioP2
45730;SDS011;31440;48.584;13.460;2023-01-28T00:00:48;13.57;;;7.15;;
45730;SDS011;31440;48.584;13.460;2023-01-28T00:03:54;11.82;;;6.03;;
45730;SDS011;31440;48.584;13.460;2023-01-28T00:06:59;14.10;;;7.63;;
45730;SDS011;31440;48.584;13.460;2023-01-28T00:10:04;10.25;;;6.15;;
45730;SDS011;31440;48.584;13.460;2023-01-28T00:13:10;15.35;;;7.22;;
45730;SDS011;31440;48.584;13.460;2023-01-28T00:16:18;11.20;;;6.85;;
45730;SDS011;31440;48.584;13.460;2023-01-28T00:19:23;11.45;;;5.95;;
45730;SDS011;31440;48.584;13.460;2023-01-28T00:22:27;11.05;;;6.57;;
45730;SDS011;31440;48.584;13.460;2023-01-28T00:25:32;12.88;;;6.30;;
45730;SDS011;31440;48.584;13.460;2023-01-28T00:28:37;9.23;;;5.75;;
45730;SDS011;31440;48.584;13.460;2023-01-28T00:34:47;11.20;;;5.75;;
45730;SDS011;31440;48.584;13.460;2023-01-28T00:37:53;10.57;;;6.47;;
45730;SDS011;31440;48.584;13.460;2023-01-28T00:44:12;8.90;;;5.53;;
45730;SDS011;31440;48.584;13.460;2023-01-28T00:47:17;10.63;;;5.68;;
45730;SDS011;31440;48.584;13.460;2023-01-28T00:50:22;11.77;;;6.90;;
45730;SDS011;31440;48.584;13.460;2023-01-28T00:53:27;11.45;;;6.35;;
45730;SDS011;31440;48.584;13.460;2023-01-28T00:56:31;10.63;;;5.82;;
45730;SDS011;31440;48.584;13.460;2023-01-28T00:59:37;12.82;;;8.07;;
45730;SDS011;31440;48.584;13.460;2023-01-28T01:02:41;12.27;;;5.93;;
45730;SDS011;31440;48.584;13.460;2023-01-28T01:05:48;10.15;;;6.18;;
45730;SDS011;31440;48.584;13.460;2023-01-28T01:08:52;12.50;;;5.95;;
45730;SDS011;31440;48.584;13.460;2023-01-28T01:11:57;9.32;;;5.68;;
45730;SDS011;31440;48.584;13.460;2023-01-28T01:15:02;10.73;;;6.00;;
45730;SDS011;31440;48.584;13.460;2023-01-28T01:18:07;12.98;;;6.88;;
45730;SDS011;31440;48.584;13.460;2023-01-28T01:21:14;9.23;;;5.78;;
45730;SDS011;31440;48.584;13.460;2023-01-28T01:24:21;9.55;;;5.82;;
45730;SDS011;31440;48.584;13.460;2023-01-28T01:27:27;13.75;;;7.15;;
45730;SDS011;31440;48.584;13.460;2023-01-28T01:30:31;13.82;;;7.45;;
45730;SDS011;31440;48.584;13.460;2023-01-28T01:36:43;11.40;;;6.82;;
45730;SDS011;31440;48.584;13.460;2023-01-28T01:39:47;14.70;;;7.43;;
45730;SDS011;31440;48.584;13.460;2023-01-28T01:42:52;11.93;;;6.70;;
45730;SDS011;31440;48.584;13.460;2023-01-28T01:45:58;16.45;;;7.70;;
45730;SDS011;31440;48.584;13.460;2023-01-28T01:49:18;10.65;;;6.30;;
45730;SDS011;31440;48.584;13.460;2023-01-28T01:52:24;12.82;;;7.32;;
45730;SDS011;31440;48.584;13.460;2023-01-28T01:55:32;14.32;;;7.35;;
45730;SDS011;31440;48.584;13.460;2023-01-28T01:58:41;15.30;;;7.18;;
45730;SDS011;31440;48.584;13.460;2023-01-28T02:01:50;11.95;;;6.32;;
45730;SDS011;31440;48.584;13.460;2023-01-28T02:04:55;14.30;;;6.88;;
45730;SDS011;31440;48.584;13.460;2023-01-28T02:08:00;13.00;;;7.82;;
45730;SDS011;31440;48.584;13.460;2023-01-28T02:11:24;12.60;;;6.70;;
45730;SDS011;31440;48.584;13.460;2023-01-28T02:14:34;12.63;;;6.72;;
45730;SDS011;31440;48.584;13.460;2023-01-28T02:17:42;13.30;;;6.90;;
45730;SDS011;31440;48.584;13.460;2023-01-28T02:31:22;12.88;;;6.88;;
45730;SDS011;31440;48.584;13.460;2023-01-28T02:34:42;11.77;;;7.17;;
45730;SDS011;31440;48.584;13.460;2023-01-28T02:41:04;13.32;;;6.68;;
45730;SDS011;31440;48.584;13.460;2023-01-28T02:44:13;13.95;;;6.93;;
45730;SDS011;31440;48.584;13.460;2023-01-28T02:47:17;14.73;;;7.00;;
45730;SDS011;31440;48.584;13.460;2023-01-28T02:54:02;11.55;;;7.05;;
45730;SDS011;31440;48.584;13.460;2023-01-28T03:01:00;13.82;;;7.32;;
45730;SDS011;31440;48.584;13.460;2023-01-28T03:07:21;14.32;;;7.18;;
45730;SDS011;31440;48.584;13.460;2023-01-28T03:10:28;12.90;;;7.05;;
45730;SDS011;31440;48.584;13.460;2023-01-28T03:13:33;12.95;;;6.65;;
45730;SDS011;31440;48.584;13.460;2023-01-28T03:16:58;15.88;;;8.27;;
45730;SDS011;31440;48.584;13.460;2023-01-28T03:20:24;12.68;;;6.55;;
45730;SDS011;31440;48.584;13.460;2023-01-28T03:23:53;14.52;;;6.78;;
45730;SDS011;31440;48.584;13.460;2023-01-28T03:27:27;14.20;;;6.78;;
45730;SDS011;31440;48.584;13.460;2023-01-28T03:30:59;15.50;;;7.57;;
45730;SDS011;31440;48.584;13.460;2023-01-28T03:34:36;17.38;;;7.85;;
45730;SDS011;31440;48.584;13.460;2023-01-28T03:37:59;18.85;;;7.53;;
45730;SDS011;31440;48.584;13.460;2023-01-28T03:41:05;16.55;;;7.43;;
45730;SDS011;31440;48.584;13.460;2023-01-28T03:44:09;14.38;;;7.63;;
45730;SDS011;31440;48.584;13.460;2023-01-28T03:47:33;20.88;;;9.02;;
45730;SDS011;31440;48.584;13.460;2023-01-28T03:50:41;16.58;;;7.43;;
45730;SDS011;31440;48.584;13.460;2023-01-28T03:53:45;11.73;;;6.50;;
45730;SDS011;31440;48.584;13.460;2023-01-28T03:56:50;15.15;;;7.25;;
45730;SDS011;31440;48.584;13.460;2023-01-28T03:59:55;12.35;;;6.95;;
45730;SDS011;31440;48.584;13.460;2023-01-28T04:06:07;16.48;;;7.85;;
45730;SDS011;31440;48.584;13.460;2023-01-28T04:09:31;14.20;;;7.13;;
45730;SDS011;31440;48.584;13.460;2023-01-28T04:13:01;17.48;;;7.80;;
45730;SDS011;31440;48.584;13.460;2023-01-28T04:16:07;13.55;;;6.55;;
45730;SDS011;31440;48.584;13.460;2023-01-28T04:19:17;15.20;;;8.48;;
45730;SDS011;31440;48.584;13.460;2023-01-28T04:22:21;15.52;;;8.05;;
45730;SDS011;31440;48.584;13.460;2023-01-28T04:25:29;14.73;;;8.30;;
45730;SDS011;31440;48.584;13.460;2023-01-28T04:31:42;14.02;;;6.53;;
45730;SDS011;31440;48.584;13.460;2023-01-28T04:35:05;12.57;;;6.75;;
45730;SDS011;31440;48.584;13.460;2023-01-28T04:41:57;12.30;;;7.03;;
45730;SDS011;31440;48.584;13.460;2023-01-28T04:45:17;12.48;;;6.70;;
45730;SDS011;31440;48.584;13.460;2023-01-28T04:48:36;12.75;;;6.47;;
45730;SDS011;31440;48.584;13.460;2023-01-28T04:52:13;13.52;;;7.28;;
45730;SDS011;31440;48.584;13.460;2023-01-28T04:55:33;12.68;;;6.25;;
45730;SDS011;31440;48.584;13.460;2023-01-28T04:58:38;12.52;;;6.63;;
45730;SDS011;31440;48.584;13.460;2023-01-28T05:01:48;13.77;;;6.43;;
45730;SDS011;31440;48.584;13.460;2023-01-28T05:04:53;15.82;;;7.15;;
45730;SDS011;31440;48.584;13.460;2023-01-28T05:08:26;10.32;;;5.85;;
45730;SDS011;31440;48.584;13.460;2023-01-28T05:11:31;15.50;;;7.45;;
45730;SDS011;31440;48.584;13.460;2023-01-28T05:14:39;12.50;;;6.38;;
45730;SDS011;31440;48.584;13.460;2023-01-28T05:17:48;14.77;;;7.40;;
45730;SDS011;31440;48.584;13.460;2023-01-28T05:20:56;13.77;;;7.30;;
45730;SDS011;31440;48.584;13.460;2023-01-28T05:24:01;12.90;;;6.90;;
45730;SDS011;31440;48.584;13.460;2023-01-28T05:27:05;14.55;;;7.22;;
45730;SDS011;31440;48.584;13.460;2023-01-28T05:30:10;15.40;;;7.15;;
45730;SDS011;31440;48.584;13.460;2023-01-28T05:33:15;12.82;;;7.30;;
45730;SDS011;31440;48.584;13.460;2023-01-28T05:36:20;13.52;;;6.95;;
45730;SDS011;31440;48.584;13.460;2023-01-28T05:39:25;13.05;;;6.07;;
45730;SDS011;31440;48.584;13.460;2023-01-28T05:42:30;15.07;;;7.35;;
45730;SDS011;31440;48.584;13.460;2023-01-28T05:45:48;15.63;;;6.47;;
45730;SDS011;31440;48.584;13.460;2023-01-28T05:49:11;14.35;;;7.15;;
45730;SDS011;31440;48.584;13.460;2023-01-28T05:52:29;12.82;;;6.82;;
45730;SDS011;31440;48.584;13.460;2023-01-28T05:55:34;13.85;;;6.22;;
45730;SDS011;31440;48.584;13.460;2023-01-28T06:01:45;15.02;;;6.88;;
45730;SDS011;31440;48.584;13.460;2023-01-28T06:04:51;15.23;;;7.05;;
45730;SDS011;31440;48.584;13.460;2023-01-28T06:07:56;14.75;;;7.32;;
45730;SDS011;31440;48.584;13.460;2023-01-28T06:11:02;11.55;;;6.22;;
45730;SDS011;31440;48.584;13.460;2023-01-28T06:14:09;11.90;;;6.32;;
45730;SDS011;31440;48.584;13.460;2023-01-28T06:20:42;19.48;;;9.25;;
45730;SDS011;31440;48.584;13.460;2023-01-28T06:23:47;16.80;;;8.55;;
45730;SDS011;31440;48.584;13.460;2023-01-28T06:26:51;17.58;;;7.70;;
45730;SDS011;31440;48.584;13.460;2023-01-28T06:29:56;16.42;;;8.30;;
45730;SDS011;31440;48.584;13.460;2023-01-28T06:33:00;18.50;;;9.88;;
45730;SDS011;31440;48.584;13.460;2023-01-28T06:36:05;17.00;;;8.85;;
45730;SDS011;31440;48.584;13.460;2023-01-28T06:39:11;19.42;;;10.13;;
45730;SDS011;31440;48.584;13.460;2023-01-28T06:42:16;22.77;;;10.45;;
45730;SDS011;31440;48.584;13.460;2023-01-28T06:45:21;19.17;;;9.93;;
45730;SDS011;31440;48.584;13.460;2023-01-28T06:48:26;19.95;;;9.45;;
45730;SDS011;31440;48.584;13.460;2023-01-28T06:51:32;20.58;;;9.85;;
45730;SDS011;31440;48.584;13.460;2023-01-28T06:54:37;15.75;;;9.45;;
45730;SDS011;31440;48.584;13.460;2023-01-28T06:57:42;20.67;;;10.48;;
45730;SDS011;31440;48.584;13.460;2023-01-28T07:00:48;19.38;;;9.57;;
45730;SDS011;31440;48.584;13.460;2023-01-28T07:03:53;17.92;;;10.48;;
45730;SDS011;31440;48.584;13.460;2023-01-28T07:06:58;21.10;;;10.43;;
45730;SDS011;31440;48.584;13.460;2023-01-28T07:10:03;21.83;;;10.52;;
45730;SDS011;31440;48.584;13.460;2023-01-28T07:16:14;19.00;;;10.32;;
45730;SDS011;31440;48.584;13.460;2023-01-28T07:19:18;20.55;;;10.13;;
45730;SDS011;31440;48.584;13.460;2023-01-28T07:22:23;19.60;;;10.45;;
45730;SDS011;31440;48.584;13.460;2023-01-28T07:25:27;23.05;;;10.85;;
45730;SDS011;31440;48.584;13.460;2023-01-28T07:28:32;22.10;;;9.57;;
45730;SDS011;31440;48.584;13.460;2023-01-28T07:31:36;17.55;;;9.60;;
45730;SDS011;31440;48.584;13.460;2023-01-28T07:34:41;18.52;;;9.68;;
45730;SDS011;31440;48.584;13.460;2023-01-28T07:37:49;20.92;;;10.45;;
45730;SDS011;31440;48.584;13.460;2023-01-28T07:44:03;16.92;;;9.02;;
45730;SDS011;31440;48.584;13.460;2023-01-28T07:47:08;19.38;;;10.15;;
45730;SDS011;31440;48.584;13.460;2023-01-28T07:50:13;18.85;;;8.88;;
45730;SDS011;31440;48.584;13.460;2023-01-28T07:53:20;22.65;;;10.13;;
45730;SDS011;31440;48.584;13.460;2023-01-28T07:56:25;23.27;;;11.00;;
45730;SDS011;31440;48.584;13.460;2023-01-28T07:59:32;22.30;;;10.60;;
45730;SDS011;31440;48.584;13.460;2023-01-28T08:02:37;22.35;;;10.90;;
45730;SDS011;31440;48.584;13.460;2023-01-28T08:05:43;21.40;;;9.93;;
45730;SDS011;31440;48.584;13.460;2023-01-28T08:08:50;18.60;;;10.10;;
45730;SDS011;31440;48.584;13.460;2023-01-28T08:15:01;19.70;;;11.23;;
45730;SDS011;31440;48.584;13.460;2023-01-28T08:18:06;23.08;;;10.85;;
45730;SDS011;31440;48.584;13.460;2023-01-28T08:21:12;22.73;;;9.82;;
45730;SDS011;31440;48.584;13.460;2023-01-28T08:24:16;25.33;;;11.93;;
45730;SDS011;31440;48.584;13.460;2023-01-28T08:27:21;22.80;;;10.27;;
45730;SDS011;31440;48.584;13.460;2023-01-28T08:30:26;19.75;;;9.80;;
45730;SDS011;31440;48.584;13.460;2023-01-28T08:33:31;20.92;;;11.43;;
45730;SDS011;31440;48.584;13.460;2023-01-28T08:36:35;25.20;;;12.00;;
45730;SDS011;31440;48.584;13.460;2023-01-28T08:39:40;20.50;;;10.80;;
45730;SDS011;31440;48.584;13.460;2023-01-28T08:42:48;17.77;;;9.85;;
45730;SDS011;31440;48.584;13.460;2023-01-28T08:45:54;18.17;;;11.40;;
45730;SDS011;31440;48.584;13.460;2023-01-28T08:48:58;20.40;;;11.70;;
45730;SDS011;31440;48.584;13.460;2023-01-28T08:52:03;23.90;;;11.85;;
45730;SDS011;31440;48.584;13.460;2023-01-28T08:55:08;25.27;;;11.10;;
45730;SDS011;31440;48.584;13.460;2023-01-28T08:58:14;23.85;;;11.07;;
45730;SDS011;31440;48.584;13.460;2023-01-28T09:01:21;24.67;;;12.18;;
45730;SDS011;31440;48.584;13.460;2023-01-28T09:04:25;24.38;;;12.05;;
45730;SDS011;31440;48.584;13.460;2023-01-28T09:07:30;21.80;;;11.20;;
45730;SDS011;31440;48.584;13.460;2023-01-28T09:10:36;21.75;;;11.32;;
45730;SDS011;31440;48.584;13.460;2023-01-28T09:13:41;27.42;;;12.52;;
45730;SDS011;31440;48.584;13.460;2023-01-28T09:16:46;21.92;;;12.50;;
45730;SDS011;31440;48.584;13.460;2023-01-28T09:19:51;21.98;;;11.43;;
45730;SDS011;31440;48.584;13.460;2023-01-28T09:22:56;23.42;;;12.98;;
45730;SDS011;31440;48.584;13.460;2023-01-28T09:26:02;25.50;;;11.75;;
45730;SDS011;31440;48.584;13.460;2023-01-28T09:29:07;23.33;;;11.77;;
45730;SDS011;31440;48.584;13.460;2023-01-28T09:32:12;26.95;;;12.57;;
45730;SDS011;31440;48.584;13.460;2023-01-28T09:35:17;19.30;;;12.07;;
45730;SDS011;31440;48.584;13.460;2023-01-28T09:38:22;25.75;;;11.75;;
45730;SDS011;31440;48.584;13.460;2023-01-28T09:41:28;24.95;;;12.90;;
45730;SDS011;31440;48.584;13.460;2023-01-28T09:48:36;23.77;;;11.25;;
45730;SDS011;31440;48.584;13.460;2023-01-28T09:51:49;28.42;;;11.98;;
45730;SDS011;31440;48.584;13.460;2023-01-28T09:58:24;22.20;;;10.93;;
45730;SDS011;31440;48.584;13.460;2023-01-28T10:01:37;26.92;;;12.95;;
45730;SDS011;31440;48.584;13.460;2023-01-28T10:14:54;23.48;;;11.20;;
45730;SDS011;31440;48.584;13.460;2023-01-28T10:18:02;29.65;;;14.20;;
45730;SDS011;31440;48.584;13.460;2023-01-28T10:21:22;25.92;;;13.60;;
45730;SDS011;31440;48.584;13.460;2023-01-28T10:24:35;27.98;;;11.68;;
45730;SDS011;31440;48.584;13.460;2023-01-28T10:27:48;22.33;;;11.43;;
45730;SDS011;31440;48.584;13.460;2023-01-28T10:30:54;21.95;;;10.95;;
45730;SDS011;31440;48.584;13.460;2023-01-28T10:33:59;25.98;;;12.98;;
45730;SDS011;31440;48.584;13.460;2023-01-28T10:37:04;24.30;;;12.95;;
45730;SDS011;31440;48.584;13.460;2023-01-28T10:40:12;25.08;;;12.15;;
45730;SDS011;31440;48.584;13.460;2023-01-28T10:43:20;25.77;;;12.88;;
45730;SDS011;31440;48.584;13.460;2023-01-28T10:46:27;23.58;;;12.73;;
45730;SDS011;31440;48.584;13.460;2023-01-28T10:53:02;24.13;;;11.88;;
45730;SDS011;31440;48.584;13.460;2023-01-28T10:56:17;24.13;;;12.32;;
45730;SDS011;31440;48.584;13.460;2023-01-28T10:59:29;21.75;;;11.85;;
45730;SDS011;31440;48.584;13.460;2023-01-28T11:02:36;20.52;;;10.75;;
45730;SDS011;31440;48.584;13.460;2023-01-28T11:05:48;27.33;;;13.18;;
45730;SDS011;31440;48.584;13.460;2023-01-28T11:12:18;21.45;;;11.90;;
45730;SDS011;31440;48.584;13.460;2023-01-28T11:15:25;20.33;;;12.38;;
45730;SDS011;31440;48.584;13.460;2023-01-28T11:18:31;17.63;;;10.32;;
45730;SDS011;31440;48.584;13.460;2023-01-28T11:21:39;18.75;;;11.20;;
45730;SDS011;31440;48.584;13.460;2023-01-28T11:24:51;24.38;;;12.02;;
45730;SDS011;31440;48.584;13.460;2023-01-28T11:27:56;27.40;;;12.05;;
45730;SDS011;31440;48.584;13.460;2023-01-28T11:31:04;19.80;;;10.98;;
45730;SDS011;31440;48.584;13.460;2023-01-28T11:34:15;21.98;;;11.88;;
45730;SDS011;31440;48.584;13.460;2023-01-28T11:37:22;19.27;;;10.57;;
45730;SDS011;31440;48.584;13.460;2023-01-28T11:40:28;22.92;;;11.43;;
45730;SDS011;31440;48.584;13.460;2023-01-28T11:43:32;24.17;;;11.05;;
45730;SDS011;31440;48.584;13.460;2023-01-28T11:53:31;19.73;;;10.77;;
45730;SDS011;31440;48.584;13.460;2023-01-28T12:41:12;21.10;;;10.95;;
45730;SDS011;31440;48.584;13.460;2023-01-28T12:44:24;22.23;;;11.43;;
45730;SDS011;31440;48.584;13.460;2023-01-28T12:48:00;20.55;;;10.95;;
45730;SDS011;31440;48.584;13.460;2023-01-28T12:54:20;24.40;;;11.70;;
45730;SDS011;31440;48.584;13.460;2023-01-28T12:57:28;26.25;;;12.70;;
45730;SDS011;31440;48.584;13.460;2023-01-28T13:00:38;20.70;;;11.88;;
45730;SDS011;31440;48.584;13.460;2023-01-28T13:03:50;22.33;;;11.63;;
45730;SDS011;31440;48.584;13.460;2023-01-28T13:07:05;26.00;;;13.48;;
45730;SDS011;31440;48.584;13.460;2023-01-28T13:10:36;27.42;;;12.20;;
45730;SDS011;31440;48.584;13.460;2023-01-28T13:13:44;20.55;;;11.32;;
45730;SDS011;31440;48.584;13.460;2023-01-28T13:16:50;22.67;;;11.45;;
45730;SDS011;31440;48.584;13.460;2023-01-28T13:19:55;22.17;;;12.25;;
45730;SDS011;31440;48.584;13.460;2023-01-28T13:23:04;21.23;;;11.15;;
45730;SDS011;31440;48.584;13.460;2023-01-28T13:26:26;21.45;;;11.07;;
45730;SDS011;31440;48.584;13.460;2023-01-28T13:29:32;18.90;;;9.90;;
45730;SDS011;31440;48.584;13.460;2023-01-28T13:32:37;21.80;;;11.65;;
45730;SDS011;31440;48.584;13.460;2023-01-28T13:35:42;20.80;;;12.10;;
45730;SDS011;31440;48.584;13.460;2023-01-28T13:42:24;22.63;;;11.70;;
45730;SDS011;31440;48.584;13.460;2023-01-28T13:45:31;19.52;;;10.90;;
45730;SDS011;31440;48.584;13.460;2023-01-28T13:48:55;19.85;;;10.98;;
45730;SDS011;31440;48.584;13.460;2023-01-28T13:55:17;22.58;;;11.13;;
45730;SDS011;31440;48.584;13.460;2023-01-28T14:05:29;20.58;;;10.43;;
45730;SDS011;31440;48.584;13.460;2023-01-28T14:09:06;19.70;;;9.77;;
45730;SDS011;31440;48.584;13.460;2023-01-28T14:12:33;20.58;;;10.82;;
45730;SDS011;31440;48.584;13.460;2023-01-28T14:19:10;24.30;;;11.27;;
45730;SDS011;31440;48.584;13.460;2023-01-28T14:22:17;23.00;;;10.82;;
45730;SDS011;31440;48.584;13.460;2023-01-28T14:32:02;25.65;;;12.32;;
45730;SDS011;31440;48.584;13.460;2023-01-28T14:35:08;25.50;;;11.02;;
45730;SDS011;31440;48.584;13.460;2023-01-28T14:38:17;22.70;;;10.98;;
45730;SDS011;31440;48.584;13.460;2023-01-28T14:41:26;25.30;;;10.68;;
45730;SDS011;31440;48.584;13.460;2023-01-28T14:44:35;18.27;;;10.52;;
45730;SDS011;31440;48.584;13.460;2023-01-28T14:47:46;21.85;;;10.80;;
45730;SDS011;31440;48.584;13.460;2023-01-28T14:51:06;20.80;;;11.30;;
45730;SDS011;31440;48.584;13.460;2023-01-28T15:00:55;24.52;;;11.38;;
45730;SDS011;31440;48.584;13.460;2023-01-28T15:04:03;25.15;;;11.55;;
45730;SDS011;31440;48.584;13.460;2023-01-28T15:07:14;21.30;;;12.32;;
45730;SDS011;31440;48.584;13.460;2023-01-28T15:10:34;22.90;;;11.43;;
45730;SDS011;31440;48.584;13.460;2023-01-28T15:13:42;20.75;;;10.45;;
45730;SDS011;31440;48.584;13.460;2023-01-28T15:16:49;22.48;;;11.95;;
45730;SDS011;31440;48.584;13.460;2023-01-28T15:23:00;26.50;;;11.80;;
45730;SDS011;31440;48.584;13.460;2023-01-28T15:26:11;25.90;;;11.98;;
45730;SDS011;31440;48.584;13.460;2023-01-28T15:29:23;25.63;;;11.90;;
45730;SDS011;31440;48.584;13.460;2023-01-28T15:32:39;25.73;;;11.63;;
45730;SDS011;31440;48.584;13.460;2023-01-28T15:35:54;24.33;;;13.27;;
45730;SDS011;31440;48.584;13.460;2023-01-28T15:38:59;23.90;;;10.50;;
45730;SDS011;31440;48.584;13.460;2023-01-28T15:42:05;26.85;;;13.65;;
45730;SDS011;31440;48.584;13.460;2023-01-28T15:45:14;29.40;;;13.20;;
45730;SDS011;31440;48.584;13.460;2023-01-28T15:48:24;25.17;;;11.70;;
45730;SDS011;31440;48.584;13.460;2023-01-28T15:51:32;23.98;;;11.65;;
45730;SDS011;31440;48.584;13.460;2023-01-28T15:54:40;25.00;;;12.15;;
45730;SDS011;31440;48.584;13.460;2023-01-28T15:57:47;29.20;;;12.75;;
45730;SDS011;31440;48.584;13.460;2023-01-28T16:01:00;23.63;;;12.10;;
45730;SDS011;31440;48.584;13.460;2023-01-28T16:04:20;27.80;;;13.18;;
45730;SDS011;31440;48.584;13.460;2023-01-28T16:07:28;27.92;;;12.73;;
45730;SDS011;31440;48.584;13.460;2023-01-28T16:10:34;24.42;;;12.88;;
45730;SDS011;31440;48.584;13.460;2023-01-28T16:13:42;30.70;;;12.68;;
45730;SDS011;31440;48.584;13.460;2023-01-28T16:16:47;28.70;;;13.30;;
45730;SDS011;31440;48.584;13.460;2023-01-28T16:20:00;28.73;;;15.32;;
45730;SDS011;31440;48.584;13.460;2023-01-28T16:23:16;25.40;;;12.23;;
45730;SDS011;31440;48.584;13.460;2023-01-28T16:26:27;28.58;;;14.35;;
45730;SDS011;31440;48.584;13.460;2023-01-28T16:32:39;30.45;;;13.13;;
45730;SDS011;31440;48.584;13.460;2023-01-28T16:35:45;34.42;;;15.88;;
45730;SDS011;31440;48.584;13.460;2023-01-28T16:39:09;34.47;;;15.02;;
45730;SDS011;31440;48.584;13.460;2023-01-28T16:42:14;32.13;;;14.27;;
45730;SDS011;31440;48.584;13.460;2023-01-28T16:45:19;32.33;;;16.15;;
45730;SDS011;31440;48.584;13.460;2023-01-28T16:48:26;28.45;;;14.15;;
45730;SDS011;31440;48.584;13.460;2023-01-28T16:51:33;28.73;;;13.38;;
45730;SDS011;31440;48.584;13.460;2023-01-28T16:54:41;37.70;;;14.88;;
45730;SDS011;31440;48.584;13.460;2023-01-28T16:57:53;32.50;;;15.10;;
45730;SDS011;31440;48.584;13.460;2023-01-28T17:01:00;35.63;;;14.65;;
45730;SDS011;31440;48.584;13.460;2023-01-28T17:04:04;28.40;;;14.38;;
45730;SDS011;31440;48.584;13.460;2023-01-28T17:07:15;38.50;;;17.20;;
45730;SDS011;31440;48.584;13.460;2023-01-28T17:10:21;33.70;;;14.55;;
45730;SDS011;31440;48.584;13.460;2023-01-28T17:13:26;31.10;;;14.82;;
45730;SDS011;31440;48.584;13.460;2023-01-28T17:16:30;29.10;;;14.52;;
45730;SDS011;31440;48.584;13.460;2023-01-28T17:19:35;37.28;;;15.95;;
45730;SDS011;31440;48.584;13.460;2023-01-28T17:22:41;36.72;;;15.85;;
45730;SDS011;31440;48.584;13.460;2023-01-28T17:25:46;29.30;;;14.90;;
45730;SDS011;31440;48.584;13.460;2023-01-28T17:28:51;27.50;;;14.05;;
45730;SDS011;31440;48.584;13.460;2023-01-28T17:31:56;32.38;;;14.52;;
45730;SDS011;31440;48.584;13.460;2023-01-28T17:35:02;30.95;;;15.40;;
45730;SDS011;31440;48.584;13.460;2023-01-28T17:38:07;32.58;;;14.60;;
45730;SDS011;31440;48.584;13.460;2023-01-28T17:41:12;38.35;;;15.82;;
45730;SDS011;31440;48.584;13.460;2023-01-28T17:47:23;35.78;;;15.88;;
45730;SDS011;31440;48.584;13.460;2023-01-28T17:50:27;37.60;;;17.45;;
45730;SDS011;31440;48.584;13.460;2023-01-28T17:53:32;33.53;;;13.85;;
45730;SDS011;31440;48.584;13.460;2023-01-28T17:56:36;37.17;;;15.63;;
45730;SDS011;31440;48.584;13.460;2023-01-28T17:59:42;38.17;;;15.93;;
45730;SDS011;31440;48.584;13.460;2023-01-28T18:02:49;31.45;;;15.73;;
45730;SDS011;31440;48.584;13.460;2023-01-28T18:05:57;32.75;;;14.25;;
45730;SDS011;31440;48.584;13.460;2023-01-28T18:09:03;35.42;;;15.77;;
45730;SDS011;31440;48.584;13.460;2023-01-28T18:12:09;35.63;;;16.35;;
45730;SDS011;31440;48.584;13.460;2023-01-28T18:15:16;27.15;;;13.77;;
45730;SDS011;31440;48.584;13.460;2023-01-28T18:18:21;33.95;;;16.02;;
45730;SDS011;31440;48.584;13.460;2023-01-28T18:21:30;34.40;;;15.13;;
45730;SDS011;31440;48.584;13.460;2023-01-28T18:24:56;35.55;;;16.63;;
45730;SDS011;31440;48.584;13.460;2023-01-28T18:28:00;35.85;;;16.27;;
45730;SDS011;31440;48.584;13.460;2023-01-28T18:34:11;35.28;;;15.35;;
45730;SDS011;31440;48.584;13.460;2023-01-28T18:37:15;35.00;;;15.05;;
45730;SDS011;31440;48.584;13.460;2023-01-28T18:40:20;33.47;;;15.10;;
45730;SDS011;31440;48.584;13.460;2023-01-28T18:43:25;34.75;;;15.25;;
45730;SDS011;31440;48.584;13.460;2023-01-28T18:46:31;31.48;;;16.63;;
45730;SDS011;31440;48.584;13.460;2023-01-28T18:52:43;31.33;;;14.52;;
45730;SDS011;31440;48.584;13.460;2023-01-28T18:55:47;36.70;;;16.10;;
45730;SDS011;31440;48.584;13.460;2023-01-28T18:58:56;40.35;;;16.67;;
45730;SDS011;31440;48.584;13.460;2023-01-28T19:02:02;35.28;;;17.17;;
45730;SDS011;31440;48.584;13.460;2023-01-28T19:05:06;29.92;;;14.38;;
45730;SDS011;31440;48.584;13.460;2023-01-28T19:08:11;33.45;;;17.10;;
45730;SDS011;31440;48.584;13.460;2023-01-28T19:11:16;34.58;;;17.35;;
45730;SDS011;31440;48.584;13.460;2023-01-28T19:14:20;36.20;;;16.60;;
45730;SDS011;31440;48.584;13.460;2023-01-28T19:17:25;31.35;;;14.93;;
45730;SDS011;31440;48.584;13.460;2023-01-28T19:20:29;40.45;;;16.45;;
45730;SDS011;31440;48.584;13.460;2023-01-28T19:23:34;42.72;;;18.20;;
45730;SDS011;31440;48.584;13.460;2023-01-28T19:26:53;36.25;;;16.67;;
45730;SDS011;31440;48.584;13.460;2023-01-28T19:29:57;28.48;;;14.90;;
45730;SDS011;31440;48.584;13.460;2023-01-28T19:33:02;34.35;;;15.57;;
45730;SDS011;31440;48.584;13.460;2023-01-28T19:36:09;33.78;;;14.65;;
45730;SDS011;31440;48.584;13.460;2023-01-28T19:42:21;35.47;;;15.88;;
45730;SDS011;31440;48.584;13.460;2023-01-28T19:45:25;34.67;;;16.65;;
45730;SDS011;31440;48.584;13.460;2023-01-28T19:48:31;36.58;;;16.83;;
45730;SDS011;31440;48.584;13.460;2023-01-28T19:54:42;32.80;;;14.02;;
45730;SDS011;31440;48.584;13.460;2023-01-28T19:57:46;33.58;;;16.10;;
45730;SDS011;31440;48.584;13.460;2023-01-28T20:00:53;36.97;;;16.23;;
45730;SDS011;31440;48.584;13.460;2023-01-28T20:03:58;38.95;;;16.88;;
45730;SDS011;31440;48.584;13.460;2023-01-28T20:07:03;40.67;;;17.13;;
45730;SDS011;31440;48.584;13.460;2023-01-28T20:10:08;31.48;;;14.90;;
45730;SDS011;31440;48.584;13.460;2023-01-28T20:13:15;31.70;;;14.98;;
45730;SDS011;31440;48.584;13.460;2023-01-28T20:19:26;35.92;;;15.85;;
45730;SDS011;31440;48.584;13.460;2023-01-28T20:22:30;39.53;;;18.40;;
45730;SDS011;31440;48.584;13.460;2023-01-28T20:25:36;35.22;;;16.65;;
45730;SDS011;31440;48.584;13.460;2023-01-28T20:31:47;37.55;;;17.27;;
45730;SDS011;31440;48.584;13.460;2023-01-28T20:35:12;33.42;;;15.88;;
45730;SDS011;31440;48.584;13.460;2023-01-28T20:38:17;34.70;;;16.33;;
45730;SDS011;31440;48.584;13.460;2023-01-28T20:41:22;32.25;;;17.50;;
45730;SDS011;31440;48.584;13.460;2023-01-28T20:44:28;35.15;;;17.50;;
45730;SDS011;31440;48.584;13.460;2023-01-28T20:47:35;32.05;;;15.68;;
45730;SDS011;31440;48.584;13.460;2023-01-28T20:50:39;32.75;;;16.23;;
45730;SDS011;31440;48.584;13.460;2023-01-28T20:56:50;33.70;;;16.27;;
45730;SDS011;31440;48.584;13.460;2023-01-28T20:59:55;42.45;;;18.23;;
45730;SDS011;31440;48.584;13.460;2023-01-28T21:03:00;38.40;;;18.00;;
45730;SDS011;31440;48.584;13.460;2023-01-28T21:06:04;31.02;;;16.23;;
45730;SDS011;31440;48.584;13.460;2023-01-28T21:09:09;32.78;;;17.05;;
45730;SDS011;31440;48.584;13.460;2023-01-28T21:12:14;37.10;;;16.92;;
45730;SDS011;31440;48.584;13.460;2023-01-28T21:15:19;37.33;;;16.02;;
45730;SDS011;31440;48.584;13.460;2023-01-28T21:18:24;36.85;;;16.77;;
45730;SDS011;31440;48.584;13.460;2023-01-28T21:21:29;38.22;;;17.33;;
45730;SDS011;31440;48.584;13.460;2023-01-28T21:24:34;32.60;;;16.25;;
45730;SDS011;31440;48.584;13.460;2023-01-28T21:27:38;35.72;;;17.25;;
45730;SDS011;31440;48.584;13.460;2023-01-28T21:30:43;36.03;;;16.63;;